createdAt,value
2022-12-18T00:05:02.031Z,16.73
2022-12-18T00:10:05.487Z,16.78
2022-12-18T00:15:09.028Z,16.82
2022-12-18T00:20:12.891Z,16.75
2022-12-18T00:25:16.361Z,16.75
2022-12-18T00:30:19.789Z,16.72
2022-12-18T00:35:23.208Z,16.72
2022-12-18T00:40:26.709Z,16.65
2022-12-18T00:45:30.242Z,16.62
2022-12-18T00:50:33.811Z,16.61
2022-12-18T00:55:37.318Z,16.60
2022-12-18T01:00:40.817Z,16.58
2022-12-18T01:05:44.464Z,16.54
2022-12-18T01:10:47.976Z,16.56
2022-12-18T01:15:51.422Z,16.52
2022-12-18T01:20:54.900Z,16.50
2022-12-18T01:25:59.151Z,16.42
2022-12-18T01:31:02.694Z,16.37
2022-12-18T01:36:06.619Z,16.38
2022-12-18T01:41:10.079Z,16.37
2022-12-18T01:46:13.542Z,16.36
2022-12-18T01:51:17.025Z,16.34
2022-12-18T01:56:20.540Z,16.30
2022-12-18T02:01:24.084Z,16.30
2022-12-18T02:06:27.735Z,16.26
2022-12-18T02:11:33.418Z,16.26
2022-12-18T02:16:41.457Z,16.24
2022-12-18T02:21:45.028Z,16.20
2022-12-18T02:26:48.509Z,16.19
2022-12-18T02:31:53.616Z,16.20
2022-12-18T02:36:57.068Z,16.12
2022-12-18T02:42:00.494Z,16.10
2022-12-18T02:47:03.926Z,16.10
2022-12-18T02:52:07.463Z,16.07
2022-12-18T02:57:12.049Z,16.00
2022-12-18T03:02:15.589Z,16.00
2022-12-18T03:07:19.355Z,16.01
2022-12-18T03:12:26.869Z,15.97
2022-12-18T03:17:30.402Z,15.91
2022-12-18T03:22:33.858Z,15.92
2022-12-18T03:27:40.327Z,15.89
2022-12-18T03:32:43.837Z,15.83
2022-12-18T03:37:47.303Z,15.85
2022-12-18T03:42:50.815Z,15.86
2022-12-18T03:47:54.269Z,15.82
2022-12-18T03:52:57.702Z,15.79
2022-12-18T03:58:01.161Z,15.78
2022-12-18T04:03:04.656Z,15.76
2022-12-18T04:08:08.230Z,15.72
2022-12-18T04:13:13.924Z,15.71
2022-12-18T04:18:18.672Z,15.67
2022-12-18T04:23:22.112Z,15.64
2022-12-18T04:28:26.015Z,15.63
2022-12-18T04:33:29.584Z,15.64
2022-12-18T04:38:33.479Z,15.61
2022-12-18T04:43:38.864Z,15.60
2022-12-18T04:48:42.508Z,15.55
2022-12-18T04:53:45.997Z,15.50
2022-12-18T04:58:49.533Z,15.42
2022-12-18T05:03:53.116Z,15.41
2022-12-18T05:08:56.691Z,15.38
2022-12-18T05:14:03.062Z,15.37
2022-12-18T05:19:06.501Z,15.30
2022-12-18T05:24:11.456Z,15.34
2022-12-18T05:29:16.012Z,15.32
2022-12-18T05:34:19.663Z,15.30
2022-12-18T05:39:23.097Z,15.28
2022-12-18T05:44:26.592Z,15.24
2022-12-18T05:49:30.019Z,15.22
2022-12-18T05:54:37.584Z,15.14
2022-12-18T05:59:41.047Z,15.15
2022-12-18T06:04:47.231Z,15.11
2022-12-18T06:09:50.723Z,15.18
2022-12-18T06:14:55.436Z,15.14
2022-12-18T06:19:58.924Z,15.09
2022-12-18T06:25:06.836Z,15.06
2022-12-18T06:30:10.436Z,15.04
2022-12-18T06:35:14.919Z,15.02
2022-12-18T06:40:18.584Z,15.00
2022-12-18T06:45:22.308Z,14.98
2022-12-18T06:50:25.803Z,14.94
2022-12-18T06:55:29.282Z,14.93
2022-12-18T07:00:36.764Z,14.90
2022-12-18T07:05:41.197Z,14.96
2022-12-18T07:10:47.417Z,14.98
2022-12-18T07:15:52.672Z,14.96
2022-12-18T07:20:57.793Z,14.93
2022-12-18T07:26:01.234Z,14.91
2022-12-18T07:31:04.777Z,14.91
2022-12-18T07:36:08.237Z,14.89
2022-12-18T07:41:11.720Z,14.84
2022-12-18T07:46:15.719Z,14.79
2022-12-18T07:51:19.182Z,14.80
2022-12-18T07:56:31.138Z,14.78
2022-12-18T08:01:35.175Z,14.77
2022-12-18T08:06:38.815Z,14.77
2022-12-18T08:11:42.333Z,14.75
2022-12-18T08:16:45.845Z,14.72
2022-12-18T08:21:49.404Z,14.70
2022-12-18T08:27:20.871Z,14.69
2022-12-18T08:32:16.442Z,14.73
2022-12-18T08:37:19.904Z,14.69
2022-12-18T08:42:41.334Z,14.67
2022-12-18T08:47:44.868Z,14.71
2022-12-18T08:52:48.981Z,14.70
2022-12-18T08:57:52.445Z,14.65
2022-12-18T09:02:56.019Z,14.65
2022-12-18T09:07:59.770Z,14.59
2022-12-18T09:13:03.261Z,14.60
2022-12-18T09:18:06.732Z,14.58
2022-12-18T09:23:10.222Z,14.54
2022-12-18T09:28:13.642Z,14.54
2022-12-18T09:33:17.248Z,14.51
2022-12-18T09:38:24.236Z,14.51
2022-12-18T09:43:28.175Z,14.52
2022-12-18T09:48:31.620Z,14.50
2022-12-18T09:53:35.115Z,14.46
2022-12-18T09:58:38.817Z,14.45
2022-12-18T10:03:42.687Z,14.46
2022-12-18T10:08:46.127Z,14.45
2022-12-18T10:13:49.551Z,14.44
2022-12-18T10:18:52.980Z,14.41
2022-12-18T10:23:57.616Z,14.48
2022-12-18T10:29:05.550Z,14.44
2022-12-18T10:34:09.360Z,14.17
2022-12-18T10:39:12.929Z,14.17
2022-12-18T10:44:16.373Z,14.32
2022-12-18T10:49:19.854Z,14.45
2022-12-18T10:54:23.321Z,14.50
2022-12-18T10:59:26.785Z,14.54
2022-12-18T11:04:30.227Z,14.58
2022-12-18T11:09:33.728Z,14.53
2022-12-18T11:14:39.894Z,14.54
2022-12-18T11:19:45.764Z,14.53
2022-12-18T11:25:08.386Z,14.61
2022-12-18T11:30:12.650Z,14.67
2022-12-18T11:35:16.110Z,14.71
2022-12-18T11:40:19.592Z,14.62
2022-12-18T11:45:23.194Z,14.64
2022-12-18T11:50:26.693Z,14.67
2022-12-18T11:55:30.324Z,14.65
2022-12-18T12:00:33.848Z,14.67
2022-12-18T12:05:37.283Z,14.71
2022-12-18T12:10:40.765Z,14.72
2022-12-18T12:15:44.389Z,14.74
2022-12-18T12:20:47.884Z,14.78
2022-12-18T12:25:51.369Z,14.80
2022-12-18T12:30:54.870Z,14.86
2022-12-18T12:35:58.509Z,14.96
2022-12-18T12:41:03.462Z,15.04
2022-12-18T12:46:07.732Z,15.10
2022-12-18T12:51:11.661Z,15.18
2022-12-18T12:56:15.700Z,15.22
2022-12-18T13:01:23.275Z,15.29
2022-12-18T13:06:27.327Z,15.34
2022-12-18T13:11:48.782Z,15.38
2022-12-18T13:16:52.312Z,15.42
2022-12-18T13:21:56.166Z,15.56
2022-12-18T13:26:59.658Z,15.48
2022-12-18T13:32:03.147Z,15.64
2022-12-18T13:37:06.610Z,15.84
2022-12-18T13:42:10.133Z,15.78
2022-12-18T13:47:13.573Z,15.78
2022-12-18T13:52:18.145Z,15.81
2022-12-18T13:57:22.096Z,15.86
2022-12-18T14:02:25.831Z,15.97
2022-12-18T14:07:34.002Z,15.99
2022-12-18T14:13:01.139Z,16.04
2022-12-18T14:18:06.835Z,16.10
2022-12-18T14:23:10.305Z,16.33
2022-12-18T14:28:13.797Z,16.49
2022-12-18T14:33:17.326Z,16.50
2022-12-18T14:38:20.760Z,16.44
2022-12-18T14:43:24.316Z,16.35
2022-12-18T14:48:27.817Z,16.25
2022-12-18T14:53:31.297Z,16.24
2022-12-18T14:58:34.716Z,16.10
2022-12-18T15:03:38.688Z,16.06
2022-12-18T15:08:42.518Z,16.15
2022-12-18T15:13:45.974Z,15.90
2022-12-18T15:18:49.843Z,15.97
2022-12-18T15:23:53.312Z,16.01
2022-12-18T15:28:57.160Z,15.98
2022-12-18T15:34:00.670Z,15.98
2022-12-18T15:39:06.488Z,15.96
2022-12-18T15:44:10.392Z,15.99
2022-12-18T15:49:13.818Z,15.94
2022-12-18T15:54:17.829Z,15.91
2022-12-18T15:59:21.264Z,15.94
2022-12-18T16:04:25.754Z,15.92
2022-12-18T16:09:29.213Z,15.94
2022-12-18T16:14:32.706Z,16.01
2022-12-18T16:19:36.159Z,15.91
2022-12-18T16:24:39.730Z,16.03
2022-12-18T16:29:43.641Z,15.91
2022-12-18T16:34:47.083Z,15.92
2022-12-18T16:39:50.532Z,15.94
2022-12-18T16:44:54.009Z,15.96
2022-12-18T16:49:59.587Z,16.07
2022-12-18T16:55:02.998Z,16.08
2022-12-18T17:00:06.651Z,16.05
2022-12-18T17:05:10.202Z,16.03
2022-12-18T17:10:13.665Z,16.05
2022-12-18T17:15:17.110Z,16.07
2022-12-18T17:20:22.226Z,16.11
2022-12-18T17:25:25.650Z,16.11
2022-12-18T17:30:29.319Z,16.12
2022-12-18T17:35:32.905Z,16.19
2022-12-18T17:40:36.334Z,16.18
2022-12-18T17:45:39.772Z,16.19
2022-12-18T17:50:43.321Z,16.21
2022-12-18T17:55:46.937Z,16.23
2022-12-18T18:00:50.484Z,16.24
2022-12-18T18:05:54.083Z,16.26
2022-12-18T18:11:18.126Z,16.25
2022-12-18T18:16:21.709Z,16.34
2022-12-18T18:21:25.194Z,16.52
2022-12-18T18:26:31.135Z,16.58
2022-12-18T18:31:40.729Z,16.57
2022-12-18T18:36:45.535Z,16.45
2022-12-18T18:41:49.021Z,16.59
2022-12-18T18:46:52.712Z,16.55
2022-12-18T18:51:56.357Z,16.57
2022-12-18T19:02:23.900Z,16.45
2022-12-18T19:07:30.463Z,16.52
2022-12-18T19:12:52.437Z,16.50
2022-12-18T19:17:55.957Z,16.47
2022-12-18T19:22:59.629Z,16.47
2022-12-18T19:28:03.089Z,16.43
2022-12-18T19:33:26.793Z,16.43
2022-12-18T19:38:32.097Z,16.46
2022-12-18T19:43:36.635Z,16.56
2022-12-18T19:48:40.415Z,16.60
2022-12-18T19:53:44.157Z,16.64
2022-12-18T19:58:47.803Z,16.61
2022-12-18T20:03:52.291Z,16.55
2022-12-18T20:09:00.074Z,16.43
2022-12-18T20:14:04.395Z,16.52
2022-12-18T20:19:07.922Z,16.49
2022-12-18T20:24:12.320Z,16.56
2022-12-18T20:29:15.878Z,16.58
2022-12-18T20:34:19.345Z,16.62
2022-12-18T20:39:23.888Z,16.61
2022-12-18T20:44:28.147Z,16.55
2022-12-18T20:49:31.791Z,16.44
2022-12-18T20:54:35.311Z,16.44
2022-12-18T20:59:42.064Z,16.34
2022-12-18T21:04:49.982Z,16.31
2022-12-18T21:09:53.450Z,16.39
2022-12-18T21:14:57.107Z,16.18
2022-12-18T21:20:00.593Z,16.15
2022-12-18T21:25:04.226Z,16.11
2022-12-18T21:30:07.704Z,16.10
2022-12-18T21:35:11.392Z,16.05
2022-12-18T21:40:14.880Z,16.26
2022-12-18T21:45:18.508Z,16.13
2022-12-18T21:50:22.202Z,16.11
2022-12-18T21:55:26.020Z,16.03
2022-12-18T22:00:29.515Z,16.08
2022-12-18T22:05:32.981Z,15.96
2022-12-18T22:10:36.431Z,15.95
2022-12-18T22:15:40.363Z,15.97
2022-12-18T22:20:43.868Z,15.96
2022-12-18T22:25:47.340Z,15.99
2022-12-18T22:30:59.302Z,16.02
2022-12-18T22:36:03.362Z,15.98
2022-12-18T22:41:07.321Z,16.03
2022-12-18T22:46:10.814Z,16.16
2022-12-18T22:51:14.341Z,16.13
2022-12-18T22:56:21.210Z,16.04
2022-12-18T23:01:25.109Z,16.02
2022-12-18T23:06:28.839Z,15.99
2022-12-18T23:11:32.315Z,16.03
2022-12-18T23:16:36.224Z,16.00
2022-12-18T23:21:39.742Z,16.04
2022-12-18T23:26:43.246Z,16.07
2022-12-18T23:31:46.853Z,16.05
2022-12-18T23:36:54.625Z,16.12
2022-12-18T23:41:59.694Z,16.08
2022-12-18T23:47:04.544Z,16.08
2022-12-18T23:52:07.963Z,16.12
2022-12-18T23:57:11.484Z,16.11
